Time;durP1;ratioP1;P1;durP2;ratioP2;P2;SDS_P1;SDS_P2;PMS_P1;PMS_P2;Temp;Humidity;BMP_temperature;BMP_pressure;BME280_temperature;BME280_humidity;BME280_pressure;Samples;Min_cycle;Max_cycle;Signal;HPM_P1;HPM_P2
2023/03/18 00:01:37;;;;;;;4.03;2.00;;;;;;;;;;8253973;28;20038;-76
2023/03/18 00:05:38;;;;;;;2.42;1.80;;;;;;;;;;8238753;28;20018;-76
2023/03/18 00:09:39;;;;;;;4.70;1.80;;;;;;;;;;8253004;28;20044;-76
2023/03/18 00:13:40;;;;;;;2.33;1.58;;;;;;;;;;8238928;28;20394;-76
2023/03/18 00:17:41;;;;;;;6.88;1.65;;;;;;;;;;8236639;28;20754;-76
2023/03/18 00:21:41;;;;;;;2.33;1.70;;;;;;;;;;8236806;28;20026;-76
2023/03/18 00:25:41;;;;;;;6.28;1.60;;;;;;;;;;8237305;28;20034;-76
2023/03/18 00:29:42;;;;;;;5.80;1.90;;;;;;;;;;8234912;28;20021;-76
2023/03/18 00:33:44;;;;;;;4.20;1.98;;;;;;;;;;8237563;28;20034;-76
2023/03/18 00:37:47;;;;;;;3.55;1.30;;;;;;;;;;8239145;28;20022;-76
2023/03/18 00:41:47;;;;;;;3.60;1.67;;;;;;;;;;8237679;28;20122;-76
2023/03/18 00:45:49;;;;;;;4.78;1.55;;;;;;;;;;8235149;28;20066;-76
2023/03/18 00:49:49;;;;;;;5.05;1.55;;;;;;;;;;8240599;28;20159;-76
2023/03/18 00:53:51;;;;;;;4.50;1.73;;;;;;;;;;8240758;28;20030;-76
2023/03/18 00:57:51;;;;;;;2.92;1.60;;;;;;;;;;8240565;28;20034;-76
2023/03/18 01:01:51;;;;;;;2.25;1.27;;;;;;;;;;8238340;28;20566;-76
2023/03/18 01:05:52;;;;;;;2.92;1.40;;;;;;;;;;8239452;28;20030;-76
2023/03/18 01:09:53;;;;;;;5.03;1.58;;;;;;;;;;8243170;28;20050;-76
2023/03/18 01:13:53;;;;;;;3.45;1.63;;;;;;;;;;8243812;28;20494;-76
2023/03/18 01:17:55;;;;;;;5.28;1.70;;;;;;;;;;8245494;28;20068;-76
2023/03/18 01:21:55;;;;;;;5.95;1.77;;;;;;;;;;8242596;28;20839;-77
2023/03/18 01:25:56;;;;;;;4.72;1.45;;;;;;;;;;8239975;28;20030;-77
2023/03/18 01:29:56;;;;;;;3.97;1.42;;;;;;;;;;8252839;28;20461;-76
2023/03/18 01:33:56;;;;;;;2.53;1.40;;;;;;;;;;8248531;28;20038;-76
2023/03/18 01:37:57;;;;;;;5.43;1.48;;;;;;;;;;8250250;28;20027;-76
2023/03/18 01:41:58;;;;;;;3.72;1.80;;;;;;;;;;8248945;28;20060;-76
2023/03/18 01:45:59;;;;;;;4.32;1.60;;;;;;;;;;8248018;28;20388;-76
2023/03/18 01:50:00;;;;;;;3.22;1.48;;;;;;;;;;8251848;28;20037;-76
2023/03/18 01:54:02;;;;;;;2.15;1.25;;;;;;;;;;8249907;28;20152;-76
2023/03/18 01:58:12;;;;;;;4.80;1.58;;;;;;;;;;8250802;28;20120;-76
2023/03/18 02:02:13;;;;;;;3.80;1.30;;;;;;;;;;8251631;28;20038;-76
2023/03/18 02:06:13;;;;;;;3.17;1.35;;;;;;;;;;8248782;28;20034;-76
2023/03/18 02:10:15;;;;;;;7.25;1.40;;;;;;;;;;8252148;28;20746;-76
2023/03/18 02:14:18;;;;;;;2.70;1.20;;;;;;;;;;8263816;28;20019;-76
2023/03/18 02:18:35;;;;;;;2.80;1.17;;;;;;;;;;8245150;28;20045;-76
2023/03/18 02:22:38;;;;;;;2.95;1.30;;;;;;;;;;8242591;28;20372;-75
2023/03/18 02:26:57;;;;;;;3.77;1.17;;;;;;;;;;8252869;28;20030;-76
2023/03/18 02:30:59;;;;;;;2.22;1.33;;;;;;;;;;8251012;28;20742;-76
2023/03/18 02:35:01;;;;;;;5.05;1.70;;;;;;;;;;8257513;28;20255;-76
2023/03/18 02:39:03;;;;;;;3.33;1.67;;;;;;;;;;8250401;28;20117;-75
2023/03/18 02:43:17;;;;;;;2.05;1.25;;;;;;;;;;8245395;28;20420;-76
2023/03/18 02:47:17;;;;;;;;;;;;;;;;;;8250637;28;20033;-76
2023/03/18 02:51:18;;;;;;;3.92;1.38;;;;;;;;;;8246572;28;20187;-76
2023/03/18 02:55:18;;;;;;;3.53;1.20;;;;;;;;;;8242855;28;20041;-75
2023/03/18 02:59:19;;;;;;;3.45;1.17;;;;;;;;;;8243847;28;20026;-75
2023/03/18 03:03:19;;;;;;;3.08;1.38;;;;;;;;;;8241816;28;20042;-76
2023/03/18 03:07:20;;;;;;;4.57;1.33;;;;;;;;;;8240877;28;20153;-75
2023/03/18 03:11:20;;;;;;;5.65;1.50;;;;;;;;;;8241272;28;20037;-75
2023/03/18 03:15:20;;;;;;;4.40;1.27;;;;;;;;;;8242157;28;20928;-76
2023/03/18 03:19:20;;;;;;;3.45;1.40;;;;;;;;;;8240679;28;20026;-75
2023/03/18 03:23:20;;;;;;;3.00;1.20;;;;;;;;;;8244545;28;20920;-76
2023/03/18 03:27:21;;;;;;;3.60;1.30;;;;;;;;;;8244052;28;20038;-76
2023/03/18 03:31:22;;;;;;;3.55;1.40;;;;;;;;;;8239255;28;20316;-75
2023/03/18 03:35:23;;;;;;;3.40;1.40;;;;;;;;;;8241465;28;20105;-76
2023/03/18 03:39:23;;;;;;;4.90;1.70;;;;;;;;;;8256885;28;20049;-75
2023/03/18 03:43:23;;;;;;;2.88;1.70;;;;;;;;;;8241861;28;20720;-75
2023/03/18 03:47:23;;;;;;;3.88;2.10;;;;;;;;;;8240266;28;20041;-75
2023/03/18 03:51:24;;;;;;;4.82;2.38;;;;;;;;;;8238229;28;20030;-75
2023/03/18 03:55:24;;;;;;;4.65;1.95;;;;;;;;;;8241917;28;20034;-75
2023/03/18 03:59:24;;;;;;;6.25;2.58;;;;;;;;;;8241339;28;20034;-75
2023/03/18 04:03:27;;;;;;;4.40;2.28;;;;;;;;;;8239374;28;20054;-75
2023/03/18 04:07:27;;;;;;;5.72;2.05;;;;;;;;;;8239822;28;20050;-76
2023/03/18 04:11:28;;;;;;;2.97;1.60;;;;;;;;;;8238410;28;20744;-76
2023/03/18 04:15:28;;;;;;;2.45;1.30;;;;;;;;;;8239268;28;20042;-76
2023/03/18 04:19:29;;;;;;;2.38;1.30;;;;;;;;;;8239541;28;20037;-75
2023/03/18 04:23:31;;;;;;;1.77;1.02;;;;;;;;;;8240261;28;20087;-76
2023/03/18 04:27:32;;;;;;;2.42;1.17;;;;;;;;;;8238826;28;20124;-75
2023/03/18 04:31:32;;;;;;;2.28;1.17;;;;;;;;;;8238763;28;20034;-76
2023/03/18 04:35:32;;;;;;;5.43;1.27;;;;;;;;;;8241760;28;20545;-75
2023/03/18 04:39:33;;;;;;;2.78;1.20;;;;;;;;;;8254505;28;20030;-75
2023/03/18 04:43:33;;;;;;;2.78;1.17;;;;;;;;;;8239412;28;21185;-76
2023/03/18 04:47:34;;;;;;;4.68;1.63;;;;;;;;;;8242317;28;20674;-75
2023/03/18 04:51:36;;;;;;;4.50;1.73;;;;;;;;;;8262456;28;20700;-76
2023/03/18 04:55:36;;;;;;;2.30;1.60;;;;;;;;;;8239464;28;20037;-75
2023/03/18 04:59:36;;;;;;;2.20;1.60;;;;;;;;;;8239634;28;20306;-75
2023/03/18 05:03:37;;;;;;;3.67;1.58;;;;;;;;;;8237106;28;20542;-75
2023/03/18 05:07:37;;;;;;;3.75;1.50;;;;;;;;;;8238781;28;20471;-75
2023/03/18 05:11:38;;;;;;;3.22;1.40;;;;;;;;;;8238207;28;20034;-75
2023/03/18 05:15:38;;;;;;;1.95;1.40;;;;;;;;;;8237175;28;20458;-76
2023/03/18 05:19:38;;;;;;;2.92;1.30;;;;;;;;;;8237291;28;20038;-75
2023/03/18 05:23:38;;;;;;;4.35;1.70;;;;;;;;;;8237514;28;20026;-75
2023/03/18 05:27:39;;;;;;;1.88;1.30;;;;;;;;;;8238300;28;20033;-75
2023/03/18 05:31:39;;;;;;;2.50;1.48;;;;;;;;;;8253760;28;20038;-75
2023/03/18 05:35:40;;;;;;;2.05;1.40;;;;;;;;;;8238092;28;20947;-76
2023/03/18 05:39:40;;;;;;;1.95;1.33;;;;;;;;;;8238574;28;20035;-75
2023/03/18 05:43:41;;;;;;;2.30;1.35;;;;;;;;;;8239745;28;20117;-75
2023/03/18 05:47:43;;;;;;;2.00;1.15;;;;;;;;;;8237508;28;20049;-75
2023/03/18 05:51:43;;;;;;;4.43;1.80;;;;;;;;;;8234445;28;20023;-76
2023/03/18 05:55:43;;;;;;;3.53;1.25;;;;;;;;;;8239361;28;20486;-76
2023/03/18 05:59:44;;;;;;;2.93;1.47;;;;;;;;;;8240295;28;20069;-75
2023/03/18 06:03:44;;;;;;;2.72;1.20;;;;;;;;;;8242649;28;20504;-75
2023/03/18 06:07:45;;;;;;;2.65;1.20;;;;;;;;;;8247132;28;20034;-75
2023/03/18 06:11:45;;;;;;;4.13;1.30;;;;;;;;;;8238584;28;20042;-76
2023/03/18 06:15:46;;;;;;;2.05;1.20;;;;;;;;;;8238041;28;20916;-76
2023/03/18 06:19:47;;;;;;;2.60;1.30;;;;;;;;;;8239713;28;20021;-77
2023/03/18 06:23:47;;;;;;;6.88;1.15;;;;;;;;;;8242916;28;20831;-76
2023/03/18 06:27:48;;;;;;;3.38;1.20;;;;;;;;;;8243165;28;20766;-77
2023/03/18 06:31:48;;;;;;;3.40;1.33;;;;;;;;;;8239804;28;20039;-76
2023/03/18 06:35:48;;;;;;;1.92;1.10;;;;;;;;;;8242197;28;21060;-76
2023/03/18 06:39:49;;;;;;;1.85;1.08;;;;;;;;;;8235170;28;20674;-76
2023/03/18 06:43:50;;;;;;;2.45;1.35;;;;;;;;;;8241312;28;20022;-76
2023/03/18 06:47:50;;;;;;;1.42;1.00;;;;;;;;;;8242427;28;20092;-77
2023/03/18 06:51:50;;;;;;;3.45;1.50;;;;;;;;;;8257314;28;20022;-77
2023/03/18 06:55:52;;;;;;;1.73;1.08;;;;;;;;;;8242216;28;20045;-77
2023/03/18 06:59:52;;;;;;;3.22;1.13;;;;;;;;;;8243033;28;20064;-77
2023/03/18 07:03:53;;;;;;;1.77;1.40;;;;;;;;;;8242852;28;20112;-77
2023/03/18 07:07:53;;;;;;;2.13;1.10;;;;;;;;;;8257942;28;20026;-77
2023/03/18 07:11:53;;;;;;;2.22;1.30;;;;;;;;;;8245323;28;20022;-77
2023/03/18 07:15:57;;;;;;;2.15;1.33;;;;;;;;;;8242621;28;20727;-77
2023/03/18 07:19:57;;;;;;;1.80;1.48;;;;;;;;;;8243233;28;20112;-78
2023/03/18 07:23:58;;;;;;;3.95;1.90;;;;;;;;;;8241146;28;20057;-77
2023/03/18 07:27:59;;;;;;;4.32;1.75;;;;;;;;;;8239219;28;20040;-78
2023/03/18 07:32:00;;;;;;;2.63;1.42;;;;;;;;;;8243503;28;20045;-77
2023/03/18 07:36:00;;;;;;;3.60;1.50;;;;;;;;;;8241097;28;20109;-78
2023/03/18 07:40:01;;;;;;;3.70;1.40;;;;;;;;;;8240582;28;20045;-78
2023/03/18 07:44:02;;;;;;;2.72;1.27;;;;;;;;;;8243648;28;20052;-78
2023/03/18 07:48:03;;;;;;;4.15;1.65;;;;;;;;;;8254784;28;20419;-78
2023/03/18 07:52:03;;;;;;;1.73;1.13;;;;;;;;;;8236619;28;20033;-78
2023/03/18 07:56:03;;;;;;;2.50;1.23;;;;;;;;;;8239925;28;20030;-77
2023/03/18 08:00:04;;;;;;;4.95;1.67;;;;;;;;;;8238418;28;20017;-78
2023/03/18 08:04:05;;;;;;;3.10;1.50;;;;;;;;;;8237896;28;20128;-78
2023/03/18 08:08:05;;;;;;;2.53;1.50;;;;;;;;;;8236713;28;20053;-78
2023/03/18 08:12:05;;;;;;;3.63;1.67;;;;;;;;;;8255235;28;20023;-77
2023/03/18 08:16:06;;;;;;;2.75;1.45;;;;;;;;;;8236737;28;20038;-78
2023/03/18 08:20:06;;;;;;;2.17;1.50;;;;;;;;;;8236156;28;20030;-78
2023/03/18 08:24:06;;;;;;;2.72;1.60;;;;;;;;;;8239987;28;20794;-77
2023/03/18 08:28:07;;;;;;;3.72;1.50;;;;;;;;;;8248812;28;20037;-78
2023/03/18 08:32:07;;;;;;;4.13;1.77;;;;;;;;;;8238656;28;20045;-78
2023/03/18 08:36:08;;;;;;;5.13;1.98;;;;;;;;;;8239673;28;20026;-78
2023/03/18 08:40:08;;;;;;;2.85;1.25;;;;;;;;;;8240467;28;20141;-78
2023/03/18 08:44:09;;;;;;;2.53;1.50;;;;;;;;;;8235833;28;20724;-78
2023/03/18 08:48:09;;;;;;;2.60;1.45;;;;;;;;;;8247952;28;20053;-78
2023/03/18 08:52:10;;;;;;;3.67;1.30;;;;;;;;;;8238158;28;20026;-78
2023/03/18 08:56:11;;;;;;;5.72;1.40;;;;;;;;;;8234028;28;20033;-78
2023/03/18 09:00:12;;;;;;;3.00;1.48;;;;;;;;;;8241307;28;20041;-79
2023/03/18 09:04:13;;;;;;;3.60;1.40;;;;;;;;;;8237857;28;20014;-77
2023/03/18 09:08:14;;;;;;;2.50;1.40;;;;;;;;;;8237538;28;20025;-78
2023/03/18 09:12:14;;;;;;;3.40;1.30;;;;;;;;;;8235890;28;20018;-78
2023/03/18 09:16:14;;;;;;;4.53;1.33;;;;;;;;;;8234400;28;20867;-77
2023/03/18 09:20:15;;;;;;;3.28;1.10;;;;;;;;;;8236168;28;20272;-76
2023/03/18 09:24:16;;;;;;;1.33;1.15;;;;;;;;;;8236541;28;20030;-76
2023/03/18 09:28:19;;;;;;;1.90;1.35;;;;;;;;;;8237242;28;20032;-76
2023/03/18 09:32:19;;;;;;;5.05;1.50;;;;;;;;;;8233622;28;20032;-76
2023/03/18 09:36:20;;;;;;;1.60;1.20;;;;;;;;;;8233975;28;20030;-77
2023/03/18 09:40:20;;;;;;;5.53;3.23;;;;;;;;;;8236067;28;20785;-77
2023/03/18 09:44:20;;;;;;;3.45;1.40;;;;;;;;;;8248780;28;20546;-79
2023/03/18 09:48:56;;;;;;;2.27;1.10;;;;;;;;;;8250333;28;21010;-77
2023/03/18 09:52:59;;;;;;;4.00;1.25;;;;;;;;;;8133516;28;21031;-77
2023/03/18 09:57:01;;;;;;;3.28;1.30;;;;;;;;;;8241003;28;20048;-78
2023/03/18 10:01:02;;;;;;;4.40;1.30;;;;;;;;;;8241696;28;20034;-78
2023/03/18 10:05:05;;;;;;;2.53;1.50;;;;;;;;;;8239718;28;20033;-77
2023/03/18 10:09:13;;;;;;;3.83;1.40;;;;;;;;;;8240339;28;20033;-77
2023/03/18 10:13:17;;;;;;;3.80;1.30;;;;;;;;;;8256870;28;21005;-77
2023/03/18 10:17:29;;;;;;;3.28;1.20;;;;;;;;;;8244609;28;20038;-77
2023/03/18 10:21:36;;;;;;;1.42;1.05;;;;;;;;;;8241264;28;20032;-78
2023/03/18 10:25:36;;;;;;;2.13;1.20;;;;;;;;;;8240760;28;20034;-78
2023/03/18 10:29:45;;;;;;;2.50;1.30;;;;;;;;;;8257183;28;20124;-77
2023/03/18 10:34:01;;;;;;;3.22;1.40;;;;;;;;;;8241348;28;20273;-78
2023/03/18 10:38:03;;;;;;;2.97;1.20;;;;;;;;;;8248912;28;20030;-77
2023/03/18 10:42:16;;;;;;;3.90;1.17;;;;;;;;;;8244177;28;20125;-77
2023/03/18 10:46:18;;;;;;;2.00;1.10;;;;;;;;;;8241420;28;20886;-77
2023/03/18 10:50:32;;;;;;;3.10;1.40;;;;;;;;;;8239401;28;20027;-77
2023/03/18 10:54:39;;;;;;;3.08;1.20;;;;;;;;;;8242591;28;20030;-77
2023/03/18 10:58:40;;;;;;;3.70;1.40;;;;;;;;;;8241206;28;20400;-77
2023/03/18 11:02:41;;;;;;;2.08;1.20;;;;;;;;;;8243660;28;20061;-77
2023/03/18 11:06:49;;;;;;;4.23;0.90;;;;;;;;;;8252450;28;20034;-78
2023/03/18 11:10:49;;;;;;;3.00;1.10;;;;;;;;;;8254714;28;20018;-77
2023/03/18 11:14:50;;;;;;;2.58;1.20;;;;;;;;;;8221705;28;20116;-77
2023/03/18 11:18:51;;;;;;;2.83;1.27;;;;;;;;;;8239064;28;21191;-77
2023/03/18 11:22:54;;;;;;;2.00;1.00;;;;;;;;;;8244922;28;20064;-77
2023/03/18 11:26:55;;;;;;;1.52;1.20;;;;;;;;;;8245342;28;20666;-77
2023/03/18 11:30:56;;;;;;;8.20;1.40;;;;;;;;;;8241847;28;20030;-77
2023/03/18 11:34:57;;;;;;;3.17;1.30;;;;;;;;;;8239062;28;20470;-77
2023/03/18 11:39:00;;;;;;;2.35;1.10;;;;;;;;;;8240073;28;20709;-76
2023/03/18 11:43:03;;;;;;;2.20;1.10;;;;;;;;;;8238378;28;20014;-76
2023/03/18 11:47:16;;;;;;;4.38;2.33;;;;;;;;;;8241147;28;20045;-77
2023/03/18 11:51:18;;;;;;;7.15;2.63;;;;;;;;;;8235906;28;20018;-77
2023/03/18 11:55:37;;;;;;;3.70;2.20;;;;;;;;;;8239113;28;20414;-77
2023/03/18 11:59:42;;;;;;;4.43;1.60;;;;;;;;;;8236362;28;20025;-77
2023/03/18 12:03:51;;;;;;;4.22;1.20;;;;;;;;;;8237405;28;20038;-77
2023/03/18 12:07:58;;;;;;;3.80;1.38;;;;;;;;;;8242192;28;20065;-78
2023/03/18 12:12:26;;;;;;;5.28;1.90;;;;;;;;;;8238386;28;20665;-77
2023/03/18 12:16:35;;;;;;;3.17;1.48;;;;;;;;;;8241632;28;20041;-77
2023/03/18 12:20:42;;;;;;;4.05;1.70;;;;;;;;;;8237462;28;20017;-77
2023/03/18 12:25:01;;;;;;;4.88;2.72;;;;;;;;;;8239211;28;20025;-77
2023/03/18 12:29:12;;;;;;;5.60;2.30;;;;;;;;;;8239113;28;20041;-77
2023/03/18 12:33:15;;;;;;;5.63;3.22;;;;;;;;;;8255460;28;20870;-77
2023/03/18 12:37:39;;;;;;;5.90;3.28;;;;;;;;;;8241942;28;20125;-77
2023/03/18 12:41:39;;;;;;;;;;;;;;;;;;8239170;28;20057;-77
2023/03/18 12:45:42;;;;;;;2.97;1.30;;;;;;;;;;8239475;28;19972;-77
2023/03/18 12:49:46;;;;;;;6.60;2.50;;;;;;;;;;8255234;28;20362;-77
2023/03/18 12:53:52;;;;;;;4.72;1.50;;;;;;;;;;8238284;28;20030;-77
2023/03/18 12:57:58;;;;;;;5.93;1.70;;;;;;;;;;8237451;28;20033;-77
2023/03/18 13:02:16;;;;;;;2.00;1.52;;;;;;;;;;8235183;28;20683;-76
2023/03/18 13:06:23;;;;;;;2.55;1.65;;;;;;;;;;8237860;28;20514;-77
2023/03/18 13:10:23;;;;;;;6.45;1.90;;;;;;;;;;8250695;28;20018;-77
2023/03/18 13:14:43;;;;;;;5.72;2.10;;;;;;;;;;8239713;28;20135;-77
2023/03/18 13:18:45;;;;;;;3.97;2.15;;;;;;;;;;8240167;28;20053;-78
2023/03/18 13:22:57;;;;;;;4.38;2.15;;;;;;;;;;8242809;28;20030;-76
2023/03/18 13:27:03;;;;;;;4.85;2.35;;;;;;;;;;8244346;28;20032;-77
2023/03/18 13:31:04;;;;;;;3.58;2.17;;;;;;;;;;8258513;28;20105;-77
2023/03/18 13:35:25;;;;;;;5.85;2.30;;;;;;;;;;8244186;28;20026;-77
2023/03/18 13:39:34;;;;;;;3.15;1.70;;;;;;;;;;8243032;28;20728;-77
2023/03/18 13:43:38;;;;;;;6.93;3.60;;;;;;;;;;8247723;28;20119;-77
2023/03/18 13:47:39;;;;;;;6.75;3.20;;;;;;;;;;8243718;28;20058;-77
2023/03/18 13:51:46;;;;;;;4.40;2.33;;;;;;;;;;8246507;28;20057;-77
2023/03/18 13:55:52;;;;;;;4.80;2.15;;;;;;;;;;8249234;28;20030;-77
2023/03/18 14:00:10;;;;;;;4.32;1.90;;;;;;;;;;8244300;28;20030;-77
2023/03/18 14:04:14;;;;;;;3.65;1.88;;;;;;;;;;8248412;28;20758;-77
2023/03/18 14:08:37;;;;;;;4.07;1.55;;;;;;;;;;8243374;28;20029;-77
2023/03/18 14:12:39;;;;;;;5.75;1.63;;;;;;;;;;8245465;28;20107;-77
2023/03/18 14:16:46;;;;;;;8.35;1.70;;;;;;;;;;8245810;28;20059;-77
2023/03/18 14:20:51;;;;;;;3.40;1.48;;;;;;;;;;8243439;28;20623;-77
2023/03/18 14:25:09;;;;;;;3.90;1.30;;;;;;;;;;8240305;28;21109;-77
2023/03/18 14:29:09;;;;;;;2.88;1.50;;;;;;;;;;8242096;28;20501;-77
2023/03/18 14:33:19;;;;;;;5.93;1.42;;;;;;;;;;8256984;28;20030;-77
2023/03/18 14:37:24;;;;;;;3.80;1.40;;;;;;;;;;8241741;28;20023;-77
2023/03/18 14:41:27;;;;;;;3.03;1.50;;;;;;;;;;8239668;28;20040;-77
2023/03/18 14:45:36;;;;;;;4.18;1.60;;;;;;;;;;8243817;28;20453;-77
2023/03/18 14:49:42;;;;;;;2.78;1.50;;;;;;;;;;8245980;28;20026;-77
2023/03/18 14:53:54;;;;;;;5.65;1.60;;;;;;;;;;8246842;28;20117;-77
2023/03/18 14:57:55;;;;;;;3.17;1.70;;;;;;;;;;8242410;28;20030;-77
2023/03/18 15:01:56;;;;;;;5.55;1.50;;;;;;;;;;8241934;28;20038;-77
2023/03/18 15:05:59;;;;;;;4.03;1.27;;;;;;;;;;8257037;28;20103;-77
2023/03/18 15:10:09;;;;;;;3.08;1.60;;;;;;;;;;8244835;28;20029;-77
2023/03/18 15:14:11;;;;;;;4.97;1.58;;;;;;;;;;8244623;28;20472;-77
2023/03/18 15:18:27;;;;;;;3.03;1.50;;;;;;;;;;8244217;28;20049;-77
2023/03/18 15:22:29;;;;;;;4.47;1.60;;;;;;;;;;8240556;28;20732;-77
2023/03/18 15:26:32;;;;;;;3.78;1.33;;;;;;;;;;8232456;28;20061;-77
2023/03/18 15:30:33;;;;;;;2.95;1.40;;;;;;;;;;8240468;28;21048;-77
2023/03/18 15:34:36;;;;;;;5.37;1.60;;;;;;;;;;8236225;28;20089;-77
2023/03/18 15:38:36;;;;;;;3.05;1.20;;;;;;;;;;8240921;28;20288;-77
2023/03/18 15:42:37;;;;;;;2.28;1.35;;;;;;;;;;8236695;28;20030;-77
2023/03/18 15:46:37;;;;;;;2.67;1.40;;;;;;;;;;8233797;28;20035;-77
2023/03/18 15:50:50;;;;;;;2.90;1.10;;;;;;;;;;8234095;28;20030;-77
2023/03/18 15:54:50;;;;;;;4.37;1.50;;;;;;;;;;8237845;28;20292;-77
2023/03/18 15:59:11;;;;;;;4.03;1.50;;;;;;;;;;8250616;28;20046;-77
2023/03/18 16:03:20;;;;;;;4.35;1.40;;;;;;;;;;8234221;28;20873;-77
2023/03/18 16:07:23;;;;;;;2.80;1.30;;;;;;;;;;8240761;28;20029;-77
2023/03/18 16:11:24;;;;;;;5.22;1.67;;;;;;;;;;8236089;28;20058;-77
2023/03/18 16:15:25;;;;;;;3.95;1.40;;;;;;;;;;8245171;28;20030;-77
2023/03/18 16:19:27;;;;;;;1.77;1.17;;;;;;;;;;8236781;28;20120;-77
2023/03/18 16:23:27;;;;;;;1.92;1.35;;;;;;;;;;8235800;28;20065;-77
2023/03/18 16:27:38;;;;;;;3.28;1.40;;;;;;;;;;8237192;28;20037;-77
2023/03/18 16:31:38;;;;;;;3.83;1.20;;;;;;;;;;8235629;28;20161;-77
2023/03/18 16:35:38;;;;;;;3.35;1.30;;;;;;;;;;8235950;28;20053;-78
2023/03/18 16:39:39;;;;;;;3.97;1.40;;;;;;;;;;8235678;28;20479;-77
2023/03/18 16:43:39;;;;;;;5.25;1.33;;;;;;;;;;8235385;28;20026;-77
2023/03/18 16:47:40;;;;;;;1.92;1.30;;;;;;;;;;8235817;28;20533;-77
2023/03/18 16:51:40;;;;;;;2.17;1.25;;;;;;;;;;8236742;28;20025;-78
2023/03/18 16:55:40;;;;;;;5.13;1.55;;;;;;;;;;8235189;28;20030;-78
2023/03/18 16:59:42;;;;;;;2.08;1.10;;;;;;;;;;8239894;28;20208;-78
2023/03/18 17:03:43;;;;;;;3.55;1.45;;;;;;;;;;8235633;28;20060;-77
2023/03/18 17:07:43;;;;;;;4.07;1.40;;;;;;;;;;8236633;28;20116;-77
2023/03/18 17:11:44;;;;;;;3.80;1.33;;;;;;;;;;8239144;28;20018;-77
2023/03/18 17:15:44;;;;;;;2.78;1.58;;;;;;;;;;8236002;28;20034;-77
2023/03/18 17:19:44;;;;;;;3.20;1.65;;;;;;;;;;8237275;28;20097;-77
2023/03/18 17:23:46;;;;;;;4.32;1.52;;;;;;;;;;8237284;28;20040;-77
2023/03/18 17:27:48;;;;;;;40.10;9.38;;;;;;;;;;8236587;28;20026;-78
2023/03/18 17:31:49;;;;;;;30.08;7.57;;;;;;;;;;8239208;28;20035;-77
2023/03/18 17:35:50;;;;;;;14.25;4.15;;;;;;;;;;8238956;28;20054;-77
2023/03/18 17:39:50;;;;;;;7.22;2.53;;;;;;;;;;8239564;28;20026;-77
2023/03/18 17:43:51;;;;;;;11.13;3.30;;;;;;;;;;8240347;28;20493;-77
2023/03/18 17:47:51;;;;;;;7.90;2.83;;;;;;;;;;8234253;28;20188;-77
2023/03/18 17:51:55;;;;;;;5.72;2.67;;;;;;;;;;8237488;28;20033;-77
2023/03/18 17:55:55;;;;;;;6.78;2.30;;;;;;;;;;8232919;28;20053;-77
2023/03/18 17:59:56;;;;;;;4.85;2.00;;;;;;;;;;8237138;28;20124;-77
2023/03/18 18:03:57;;;;;;;5.03;1.98;;;;;;;;;;8234278;28;20491;-77
2023/03/18 18:07:57;;;;;;;4.78;1.55;;;;;;;;;;8236079;28;20027;-77
2023/03/18 18:11:58;;;;;;;3.50;1.40;;;;;;;;;;8238667;28;20149;-77
2023/03/18 18:15:58;;;;;;;3.95;1.90;;;;;;;;;;8239916;28;20559;-77
2023/03/18 18:19:58;;;;;;;3.92;1.67;;;;;;;;;;8241413;28;20808;-77
2023/03/18 18:23:58;;;;;;;4.68;1.73;;;;;;;;;;8242641;28;20823;-74
2023/03/18 18:27:59;;;;;;;4.72;1.90;;;;;;;;;;8248255;28;20030;-74
2023/03/18 18:31:59;;;;;;;3.67;1.45;;;;;;;;;;8241783;28;20937;-74
2023/03/18 18:35:59;;;;;;;2.63;1.10;;;;;;;;;;8241298;28;20080;-74
2023/03/18 18:40:00;;;;;;;1.15;0.88;;;;;;;;;;8240980;28;20061;-74
2023/03/18 18:44:00;;;;;;;3.17;1.00;;;;;;;;;;8244166;28;20036;-74
2023/03/18 18:48:00;;;;;;;3.65;1.40;;;;;;;;;;8239382;28;21033;-74
2023/03/18 18:52:01;;;;;;;2.67;1.23;;;;;;;;;;8238751;28;20023;-74
2023/03/18 18:56:21;;;;;;;2.53;1.03;;;;;;;;;;8237592;28;20026;-74
2023/03/18 19:00:22;;;;;;;2.05;1.10;;;;;;;;;;8239686;28;20240;-74
2023/03/18 19:04:22;;;;;;;2.00;1.00;;;;;;;;;;8239603;28;20033;-74
2023/03/18 19:08:43;;;;;;;5.00;3.35;;;;;;;;;;8241165;28;20037;-74
2023/03/18 19:12:43;;;;;;;5.63;2.60;;;;;;;;;;8239200;28;20212;-74
2023/03/18 19:16:44;;;;;;;4.20;1.63;;;;;;;;;;8241974;28;20507;-74
2023/03/18 19:20:45;;;;;;;4.88;1.85;;;;;;;;;;8239317;28;20598;-74
2023/03/18 19:24:47;;;;;;;1.95;1.52;;;;;;;;;;8238915;28;20026;-74
2023/03/18 19:32:47;;;;;;;4.43;1.60;;;;;;;;;;8238423;28;20131;-74
2023/03/18 19:36:51;;;;;;;2.33;1.38;;;;;;;;;;8236555;28;20029;-74
2023/03/18 19:40:54;;;;;;;1.60;1.15;;;;;;;;;;8236342;28;20084;-74
2023/03/18 19:44:55;;;;;;;1.70;0.93;;;;;;;;;;8238341;28;20065;-74
2023/03/18 19:48:55;;;;;;;2.83;1.20;;;;;;;;;;8237511;28;20437;-74
2023/03/18 19:52:57;;;;;;;2.97;1.10;;;;;;;;;;8238536;28;20053;-74
2023/03/18 19:57:18;;;;;;;3.10;1.00;;;;;;;;;;8238943;28;20049;-74
2023/03/18 20:01:19;;;;;;;4.90;1.20;;;;;;;;;;8242090;28;20132;-75
2023/03/18 20:05:20;;;;;;;1.77;1.10;;;;;;;;;;8253694;28;20058;-75
2023/03/18 20:09:21;;;;;;;2.72;1.10;;;;;;;;;;8247850;28;20041;-74
2023/03/18 20:13:22;;;;;;;1.73;1.10;;;;;;;;;;8239520;28;20140;-74
2023/03/18 20:17:22;;;;;;;2.80;1.25;;;;;;;;;;8237762;28;20045;-75
2023/03/18 20:21:25;;;;;;;3.83;1.25;;;;;;;;;;8237695;28;20034;-74
2023/03/18 20:25:34;;;;;;;3.35;1.20;;;;;;;;;;8240878;28;20038;-74
2023/03/18 20:29:34;;;;;;;2.55;1.25;;;;;;;;;;8252711;28;20915;-74
2023/03/18 20:33:34;;;;;;;3.13;1.08;;;;;;;;;;8236088;28;20026;-74
2023/03/18 20:37:35;;;;;;;4.15;1.17;;;;;;;;;;8233835;28;20966;-74
2023/03/18 20:41:36;;;;;;;3.03;1.27;;;;;;;;;;8236710;28;20045;-74
2023/03/18 20:45:36;;;;;;;2.90;1.05;;;;;;;;;;8237091;28;20289;-74
2023/03/18 20:49:39;;;;;;;7.22;1.40;;;;;;;;;;8236649;28;20130;-74
2023/03/18 20:53:39;;;;;;;2.70;1.00;;;;;;;;;;8236985;28;20586;-74
2023/03/18 20:57:40;;;;;;;1.67;1.20;;;;;;;;;;8233635;28;20025;-74
2023/03/18 21:01:40;;;;;;;1.95;0.90;;;;;;;;;;8236744;28;20038;-74
2023/03/18 21:05:40;;;;;;;3.22;1.27;;;;;;;;;;8236076;28;20021;-74
2023/03/18 21:09:40;;;;;;;1.67;1.10;;;;;;;;;;8237976;28;20144;-74
2023/03/18 21:13:42;;;;;;;1.70;1.05;;;;;;;;;;8236600;28;20866;-74
2023/03/18 21:17:44;;;;;;;1.58;1.02;;;;;;;;;;8238092;28;20512;-73
2023/03/18 21:21:44;;;;;;;3.25;1.17;;;;;;;;;;8237622;28;20247;-74
2023/03/18 21:25:44;;;;;;;1.83;0.90;;;;;;;;;;8240464;28;20141;-74
2023/03/18 21:29:46;;;;;;;2.30;1.13;;;;;;;;;;8236462;28;20032;-74
2023/03/18 21:33:47;;;;;;;3.92;1.55;;;;;;;;;;8236780;28;20522;-74
2023/03/18 21:37:48;;;;;;;2.28;1.75;;;;;;;;;;8237722;28;20620;-74
2023/03/18 21:41:48;;;;;;;3.65;1.83;;;;;;;;;;8233323;28;20037;-74
2023/03/18 21:45:49;;;;;;;2.58;1.27;;;;;;;;;;8229183;28;20031;-74
2023/03/18 21:49:49;;;;;;;3.83;1.30;;;;;;;;;;8234208;28;20024;-73
2023/03/18 21:53:51;;;;;;;3.42;0.90;;;;;;;;;;8237808;28;20072;-74
2023/03/18 21:57:51;;;;;;;1.30;1.00;;;;;;;;;;8237352;28;20029;-74
2023/03/18 22:01:51;;;;;;;4.05;0.90;;;;;;;;;;8236481;28;20588;-74
2023/03/18 22:05:51;;;;;;;1.60;1.05;;;;;;;;;;8232444;28;20033;-75
2023/03/18 22:09:52;;;;;;;4.03;1.23;;;;;;;;;;8236580;28;20026;-72
2023/03/18 22:13:53;;;;;;;2.67;1.10;;;;;;;;;;8237145;28;20059;-73
2023/03/18 22:17:53;;;;;;;1.80;0.98;;;;;;;;;;8238386;28;20530;-73
2023/03/18 22:21:53;;;;;;;2.55;1.00;;;;;;;;;;8238043;28;20811;-73
2023/03/18 22:25:54;;;;;;;2.33;1.00;;;;;;;;;;8238258;28;20376;-73
2023/03/18 22:29:55;;;;;;;1.65;0.90;;;;;;;;;;8239507;28;20022;-73
2023/03/18 22:33:55;;;;;;;2.17;1.00;;;;;;;;;;8251272;28;20033;-74
2023/03/18 22:37:56;;;;;;;2.43;0.90;;;;;;;;;;8236369;28;20053;-74
2023/03/18 22:41:56;;;;;;;6.35;0.93;;;;;;;;;;8237514;28;20038;-74
2023/03/18 22:45:56;;;;;;;1.52;0.90;;;;;;;;;;8235873;28;20038;-74
2023/03/18 22:49:56;;;;;;;3.40;0.90;;;;;;;;;;8237071;28;20014;-74
2023/03/18 22:53:57;;;;;;;4.40;1.30;;;;;;;;;;8238926;28;20028;-74
2023/03/18 22:57:57;;;;;;;5.30;1.50;;;;;;;;;;8240648;28;20167;-73
2023/03/18 23:01:59;;;;;;;6.40;1.10;;;;;;;;;;8236527;28;20324;-74
2023/03/18 23:06:00;;;;;;;1.70;0.85;;;;;;;;;;8236496;28;20272;-73
2023/03/18 23:10:03;;;;;;;2.85;1.00;;;;;;;;;;8235360;28;20087;-74
2023/03/18 23:14:03;;;;;;;3.70;1.00;;;;;;;;;;8237447;28;20029;-74
2023/03/18 23:18:06;;;;;;;1.75;1.02;;;;;;;;;;8239823;28;20107;-74
2023/03/18 23:22:08;;;;;;;3.00;0.82;;;;;;;;;;8235558;28;20037;-74
2023/03/18 23:26:08;;;;;;;1.65;1.05;;;;;;;;;;8238627;28;20033;-74
2023/03/18 23:30:09;;;;;;;2.72;1.20;;;;;;;;;;8233845;28;20026;-75
2023/03/18 23:34:10;;;;;;;1.92;0.90;;;;;;;;;;8232503;28;20029;-74
2023/03/18 23:38:10;;;;;;;1.27;0.83;;;;;;;;;;8238012;28;20152;-73
2023/03/18 23:42:14;;;;;;;2.55;0.90;;;;;;;;;;8237442;28;20805;-74
2023/03/18 23:46:14;;;;;;;;;;;;;;;;;;8236806;28;20118;-73
2023/03/18 23:50:14;;;;;;;3.88;1.10;;;;;;;;;;8235042;28;20782;-73
2023/03/18 23:54:14;;;;;;;3.03;1.02;;;;;;;;;;8232699;28;20502;-73
2023/03/18 23:58:15;;;;;;;2.72;1.00;;;;;;;;;;8250625;28;21160;-73
